createdAt,value
2023-03-04T00:00:12.413Z,1012.16
2023-03-04T00:01:12.418Z,1012.16
2023-03-04T00:02:12.415Z,1012.16
2023-03-04T00:03:12.399Z,1012.17
2023-03-04T00:04:12.380Z,1012.18
2023-03-04T00:05:12.366Z,1012.20
2023-03-04T00:06:12.367Z,1012.19
2023-03-04T00:07:12.349Z,1012.22
2023-03-04T00:08:12.356Z,1012.20
2023-03-04T00:09:12.326Z,1012.21
2023-03-04T00:10:12.312Z,1012.21
2023-03-04T00:11:12.344Z,1012.21
2023-03-04T00:12:12.282Z,1012.21
2023-03-04T00:13:12.277Z,1012.22
2023-03-04T00:14:12.272Z,1012.22
2023-03-04T00:15:12.269Z,1012.20
2023-03-04T00:16:12.341Z,1012.20
2023-03-04T00:17:12.262Z,1012.19
2023-03-04T00:18:12.221Z,1012.16
2023-03-04T00:19:12.214Z,1012.16
2023-03-04T00:20:12.205Z,1012.14
2023-03-04T00:21:12.220Z,1012.14
2023-03-04T00:22:12.221Z,1012.16
2023-03-04T00:23:12.179Z,1012.16
2023-03-04T00:24:12.231Z,1012.15
2023-03-04T00:25:12.157Z,1012.17
2023-03-04T00:26:12.163Z,1012.16
2023-03-04T00:27:12.134Z,1012.17
2023-03-04T00:28:12.116Z,1012.17
2023-03-04T00:29:12.111Z,1012.19
2023-03-04T00:30:12.122Z,1012.18
2023-03-04T00:31:12.112Z,1012.18
2023-03-04T00:32:12.188Z,1012.18
2023-03-04T00:33:12.086Z,1012.15
2023-03-04T00:34:12.069Z,1012.21
2023-03-04T00:35:12.045Z,1012.15
2023-03-04T00:36:12.067Z,1012.12
2023-03-04T00:37:12.036Z,1012.13
2023-03-04T00:38:12.059Z,1012.12
2023-03-04T00:39:12.025Z,1012.11
2023-03-04T00:40:12.021Z,1012.12
2023-03-04T00:41:12.103Z,1012.10
2023-03-04T00:42:12.136Z,1012.09
2023-03-04T00:43:13.099Z,1012.08
2023-03-04T00:44:12.186Z,1012.07
2023-03-04T00:45:12.064Z,1012.11
2023-03-04T00:46:12.096Z,1012.09
2023-03-04T00:47:12.037Z,1012.08
2023-03-04T00:48:13.128Z,1012.09
2023-03-04T00:49:11.933Z,1012.08
2023-03-04T00:50:11.954Z,1012.08
2023-03-04T00:51:11.987Z,1012.09
2023-03-04T00:52:12.835Z,1012.08
2023-03-04T00:53:11.962Z,1012.08
2023-03-04T00:54:14.878Z,1012.07
2023-03-04T00:55:12.202Z,1012.07
2023-03-04T00:56:12.378Z,1012.07
2023-03-04T00:57:12.619Z,1012.05
2023-03-04T00:58:11.999Z,1012.06
2023-03-04T00:59:12.809Z,1012.05
2023-03-04T01:00:14.535Z,1012.05
2023-03-04T01:01:12.474Z,1012.06
2023-03-04T01:02:12.003Z,1012.07
2023-03-04T01:03:12.717Z,1012.06
2023-03-04T01:04:12.025Z,1012.05
2023-03-04T01:05:17.600Z,1012.04
2023-03-04T01:06:15.629Z,1012.03
2023-03-04T01:07:12.668Z,1012.02
2023-03-04T01:08:13.632Z,1012.01
2023-03-04T01:09:12.267Z,1012.00
2023-03-04T01:10:13.528Z,1011.99
2023-03-04T01:11:12.045Z,1012.00
2023-03-04T01:12:13.089Z,1012.00
2023-03-04T01:13:12.532Z,1011.99
2023-03-04T01:14:11.912Z,1011.99
2023-03-04T01:15:13.134Z,1011.98
2023-03-04T01:16:12.801Z,1011.97
2023-03-04T01:17:14.304Z,1011.97
2023-03-04T01:18:11.768Z,1011.97
2023-03-04T01:19:13.395Z,1011.96
2023-03-04T01:20:11.601Z,1011.96
2023-03-04T01:21:11.685Z,1011.95
2023-03-04T01:22:11.605Z,1011.94
2023-03-04T01:23:11.566Z,1011.94
2023-03-04T01:24:12.421Z,1011.95
2023-03-04T01:25:11.829Z,1011.93
2023-03-04T01:26:11.527Z,1011.91
2023-03-04T01:27:11.539Z,1011.91
2023-03-04T01:28:11.561Z,1011.90
2023-03-04T01:29:11.747Z,1011.86
2023-03-04T01:30:11.733Z,1011.84
2023-03-04T01:31:11.596Z,1011.85
2023-03-04T01:32:11.548Z,1011.87
2023-03-04T01:33:11.450Z,1011.85
2023-03-04T01:34:11.437Z,1011.88
2023-03-04T01:35:11.429Z,1011.85
2023-03-04T01:36:11.415Z,1011.85
2023-03-04T01:37:11.427Z,1011.85
2023-03-04T01:38:11.393Z,1011.84
2023-03-04T01:39:11.384Z,1011.82
2023-03-04T01:40:11.375Z,1011.81
2023-03-04T01:41:11.365Z,1011.80
2023-03-04T01:42:11.403Z,1011.78
2023-03-04T01:43:11.351Z,1011.77
2023-03-04T01:44:11.333Z,1011.76
2023-03-04T01:45:11.330Z,1011.77
2023-03-04T01:46:11.356Z,1011.77
2023-03-04T01:47:11.328Z,1011.77
2023-03-04T01:48:11.290Z,1011.75
2023-03-04T01:49:11.307Z,1011.74
2023-03-04T01:50:11.274Z,1011.72
2023-03-04T01:51:11.268Z,1011.73
2023-03-04T01:52:11.268Z,1011.73
2023-03-04T01:53:11.245Z,1011.73
2023-03-04T01:54:11.232Z,1011.72
2023-03-04T01:55:11.225Z,1011.72
2023-03-04T01:56:11.223Z,1011.71
2023-03-04T01:57:11.248Z,1011.70
2023-03-04T01:58:11.188Z,1011.68
2023-03-04T01:59:11.189Z,1011.68
2023-03-04T02:00:11.170Z,1011.67
2023-03-04T02:01:11.998Z,1011.64
2023-03-04T02:02:11.219Z,1011.63
2023-03-04T02:03:11.250Z,1011.61
2023-03-04T02:04:11.267Z,1011.61
2023-03-04T02:05:11.977Z,1011.60
2023-03-04T02:06:11.816Z,1011.58
2023-03-04T02:07:11.864Z,1011.59
2023-03-04T02:08:11.960Z,1011.57
2023-03-04T02:09:11.913Z,1011.57
2023-03-04T02:10:11.606Z,1011.57
2023-03-04T02:11:11.678Z,1011.59
2023-03-04T02:12:12.065Z,1011.61
2023-03-04T02:13:11.196Z,1011.62
2023-03-04T02:14:11.426Z,1011.61
2023-03-04T02:15:11.059Z,1011.63
2023-03-04T02:16:11.678Z,1011.61
2023-03-04T02:17:12.433Z,1011.61
2023-03-04T02:18:11.526Z,1011.62
2023-03-04T02:19:13.012Z,1011.61
2023-03-04T02:20:11.138Z,1011.61
2023-03-04T02:21:11.340Z,1011.60
2023-03-04T02:22:10.989Z,1011.58
2023-03-04T02:23:10.974Z,1011.57
2023-03-04T02:24:11.094Z,1011.59
2023-03-04T02:25:12.805Z,1011.60
2023-03-04T02:26:15.274Z,1011.58
2023-03-04T02:27:13.577Z,1011.56
2023-03-04T02:28:10.971Z,1011.53
2023-03-04T02:29:10.910Z,1011.52
2023-03-04T02:30:10.870Z,1011.50
2023-03-04T02:31:10.873Z,1011.49
2023-03-04T02:32:10.892Z,1011.48
2023-03-04T02:33:10.861Z,1011.46
2023-03-04T02:34:10.823Z,1011.45
2023-03-04T02:35:10.810Z,1011.45
2023-03-04T02:36:10.805Z,1011.44
2023-03-04T02:37:10.799Z,1011.44
2023-03-04T02:38:10.804Z,1011.44
2023-03-04T02:39:10.780Z,1011.43
2023-03-04T02:40:10.766Z,1011.43
2023-03-04T02:41:10.773Z,1011.42
2023-03-04T02:42:10.755Z,1011.42
2023-03-04T02:43:10.768Z,1011.42
2023-03-04T02:44:10.738Z,1011.40
2023-03-04T02:45:10.715Z,1011.39
2023-03-04T02:46:10.763Z,1011.38
2023-03-04T02:47:10.704Z,1011.38
2023-03-04T02:48:10.736Z,1011.37
2023-03-04T02:49:10.672Z,1011.35
2023-03-04T02:50:10.669Z,1011.33
2023-03-04T02:51:10.657Z,1011.33
2023-03-04T02:52:17.119Z,1011.32
2023-03-04T02:53:10.662Z,1011.32
2023-03-04T02:54:10.623Z,1011.30
2023-03-04T02:55:10.618Z,1011.29
2023-03-04T02:56:10.615Z,1011.28
2023-03-04T02:57:10.589Z,1011.27
2023-03-04T02:58:10.615Z,1011.27
2023-03-04T02:59:10.572Z,1011.25
2023-03-04T03:00:10.561Z,1011.26
2023-03-04T03:01:10.672Z,1011.25
2023-03-04T03:02:10.730Z,1011.22
2023-03-04T03:03:10.577Z,1011.22
2023-03-04T03:04:10.535Z,1011.21
2023-03-04T03:05:10.519Z,1011.20
2023-03-04T03:06:10.692Z,1011.19
2023-03-04T03:07:10.534Z,1011.21
2023-03-04T03:08:10.631Z,1011.20
2023-03-04T03:09:10.619Z,1011.20
2023-03-04T03:10:10.637Z,1011.20
2023-03-04T03:11:10.449Z,1011.21
2023-03-04T03:12:10.533Z,1011.20
2023-03-04T03:13:10.501Z,1011.20
2023-03-04T03:14:10.418Z,1011.16
2023-03-04T03:15:10.408Z,1011.15
2023-03-04T03:16:10.492Z,1011.14
2023-03-04T03:17:10.416Z,1011.13
2023-03-04T03:18:10.409Z,1011.14
2023-03-04T03:19:10.406Z,1011.14
2023-03-04T03:20:10.366Z,1011.14
2023-03-04T03:21:10.340Z,1011.13
2023-03-04T03:22:10.336Z,1011.13
2023-03-04T03:23:10.346Z,1011.10
2023-03-04T03:24:10.314Z,1011.10
2023-03-04T03:25:10.304Z,1011.09
2023-03-04T03:26:10.302Z,1011.09
2023-03-04T03:27:10.273Z,1011.09
2023-03-04T03:28:10.303Z,1011.10
2023-03-04T03:29:10.261Z,1011.09
2023-03-04T03:30:10.252Z,1011.09
2023-03-04T03:31:10.263Z,1011.08
2023-03-04T03:32:10.366Z,1011.07
2023-03-04T03:33:10.241Z,1011.08
2023-03-04T03:34:10.202Z,1011.07
2023-03-04T03:35:10.233Z,1011.06
2023-03-04T03:36:10.226Z,1011.06
2023-03-04T03:37:10.174Z,1011.05
2023-03-04T03:38:10.200Z,1011.05
2023-03-04T03:39:10.151Z,1011.03
2023-03-04T03:40:10.136Z,1011.03
2023-03-04T03:41:10.136Z,1011.05
2023-03-04T03:42:10.117Z,1011.06
2023-03-04T03:43:10.110Z,1011.02
2023-03-04T03:44:10.125Z,1011.02
2023-03-04T03:45:10.101Z,1011.02
2023-03-04T03:46:10.143Z,1011.03
2023-03-04T03:47:10.112Z,1011.03
2023-03-04T03:48:10.053Z,1011.02
2023-03-04T03:49:10.086Z,1011.02
2023-03-04T03:50:10.046Z,1011.02
2023-03-04T03:51:10.032Z,1011.02
2023-03-04T03:52:10.025Z,1011.02
2023-03-04T03:53:10.012Z,1011.01
2023-03-04T03:54:10.019Z,1011.01
2023-03-04T03:55:10.046Z,1011.01
2023-03-04T03:56:09.989Z,1010.99
2023-03-04T03:57:09.986Z,1010.99
2023-03-04T03:58:09.967Z,1011.00
2023-03-04T03:59:09.979Z,1010.97
2023-03-04T04:00:09.946Z,1010.99
2023-03-04T04:01:09.932Z,1010.98
2023-03-04T04:02:10.002Z,1010.98
2023-03-04T04:03:09.930Z,1010.99
2023-03-04T04:04:09.917Z,1010.99
2023-03-04T04:05:09.895Z,1010.99
2023-03-04T04:06:09.869Z,1011.00
2023-03-04T04:07:09.864Z,1010.98
2023-03-04T04:08:09.864Z,1010.99
2023-03-04T04:09:09.871Z,1010.98
2023-03-04T04:10:09.841Z,1010.99
2023-03-04T04:11:09.831Z,1010.97
2023-03-04T04:12:09.814Z,1010.95
2023-03-04T04:13:09.828Z,1010.95
2023-03-04T04:14:09.823Z,1010.96
2023-03-04T04:15:09.786Z,1010.96
2023-03-04T04:16:09.808Z,1010.97
2023-03-04T04:17:09.765Z,1010.99
2023-03-04T04:18:09.784Z,1010.99
2023-03-04T04:19:09.770Z,1011.00
2023-03-04T04:20:09.736Z,1010.96
2023-03-04T04:21:09.744Z,1010.98
2023-03-04T04:22:09.708Z,1011.00
2023-03-04T04:23:09.709Z,1010.98
2023-03-04T04:24:09.716Z,1011.00
2023-03-04T04:25:09.689Z,1010.99
2023-03-04T04:26:09.694Z,1010.98
2023-03-04T04:27:09.670Z,1010.98
2023-03-04T04:28:09.674Z,1010.96
2023-03-04T04:29:09.676Z,1010.95
2023-03-04T04:30:09.622Z,1010.95
2023-03-04T04:31:09.683Z,1010.96
2023-03-04T04:32:09.630Z,1010.95
2023-03-04T04:33:09.622Z,1010.96
2023-03-04T04:34:09.610Z,1010.96
2023-03-04T04:35:09.582Z,1010.96
2023-03-04T04:36:09.566Z,1010.95
2023-03-04T04:37:09.563Z,1010.93
2023-03-04T04:38:09.535Z,1010.91
2023-03-04T04:39:09.561Z,1010.90
2023-03-04T04:40:09.521Z,1010.90
2023-03-04T04:41:09.521Z,1010.89
2023-03-04T04:42:09.511Z,1010.88
2023-03-04T04:43:09.492Z,1010.89
2023-03-04T04:44:09.503Z,1010.88
2023-03-04T04:45:09.476Z,1010.88
2023-03-04T04:46:09.501Z,1010.89
2023-03-04T04:47:09.468Z,1010.87
2023-03-04T04:48:09.438Z,1010.87
2023-03-04T04:49:09.449Z,1010.86
2023-03-04T04:50:09.448Z,1010.84
2023-03-04T04:51:09.408Z,1010.85
2023-03-04T04:52:09.394Z,1010.86
2023-03-04T04:53:09.391Z,1010.85
2023-03-04T04:54:09.410Z,1010.86
2023-03-04T04:55:09.363Z,1010.86
2023-03-04T04:56:09.347Z,1010.85
2023-03-04T04:57:09.363Z,1010.87
2023-03-04T04:58:09.328Z,1010.85
2023-03-04T04:59:09.331Z,1010.84
2023-03-04T05:00:09.327Z,1010.85
2023-03-04T05:01:09.375Z,1010.83
2023-03-04T05:02:09.287Z,1010.82
2023-03-04T05:03:09.343Z,1010.82
2023-03-04T05:04:09.310Z,1010.81
2023-03-04T05:05:09.315Z,1010.81
2023-03-04T05:06:09.263Z,1010.80
2023-03-04T05:07:09.248Z,1010.79
2023-03-04T05:08:09.236Z,1010.79
2023-03-04T05:09:09.229Z,1010.78
2023-03-04T05:10:09.243Z,1010.78
2023-03-04T05:11:09.211Z,1010.79
2023-03-04T05:12:09.195Z,1010.79
2023-03-04T05:13:09.191Z,1010.80
2023-03-04T05:14:09.274Z,1010.80
2023-03-04T05:15:09.190Z,1010.79
2023-03-04T05:16:09.252Z,1010.81
2023-03-04T05:17:09.231Z,1010.81
2023-03-04T05:18:09.184Z,1010.82
2023-03-04T05:19:09.536Z,1010.82
2023-03-04T05:20:09.160Z,1010.84
2023-03-04T05:21:09.162Z,1010.84
2023-03-04T05:22:09.122Z,1010.85
2023-03-04T05:23:09.122Z,1010.88
2023-03-04T05:24:09.087Z,1010.88
2023-03-04T05:25:09.094Z,1010.90
2023-03-04T05:26:09.059Z,1010.91
2023-03-04T05:27:09.053Z,1010.90
2023-03-04T05:28:09.034Z,1010.90
2023-03-04T05:29:09.026Z,1010.93
2023-03-04T05:30:09.037Z,1010.91
2023-03-04T05:31:09.107Z,1010.92
2023-03-04T05:32:09.014Z,1010.91
2023-03-04T05:33:09.026Z,1010.94
2023-03-04T05:34:08.984Z,1010.95
2023-03-04T05:35:08.994Z,1010.94
2023-03-04T05:36:08.960Z,1010.91
2023-03-04T05:37:08.949Z,1010.92
2023-03-04T05:38:08.943Z,1010.92
2023-03-04T05:39:08.946Z,1010.93
2023-03-04T05:40:08.938Z,1010.96
2023-03-04T05:41:08.919Z,1010.95
2023-03-04T05:42:08.900Z,1010.95
2023-03-04T05:43:08.892Z,1010.96
2023-03-04T05:44:08.881Z,1010.95
2023-03-04T05:45:08.913Z,1010.97
2023-03-04T05:46:08.861Z,1010.97
2023-03-04T05:47:08.809Z,1010.98
2023-03-04T05:48:08.842Z,1010.98
2023-03-04T05:49:08.833Z,1010.97
2023-03-04T05:50:08.791Z,1010.99
2023-03-04T05:51:08.771Z,1010.99
2023-03-04T05:52:08.743Z,1010.98
2023-03-04T05:53:08.739Z,1010.99
2023-03-04T05:54:08.734Z,1011.01
2023-03-04T05:55:08.906Z,1011.02
2023-03-04T05:56:08.699Z,1011.02
2023-03-04T05:57:08.727Z,1011.03
2023-03-04T05:58:08.678Z,1011.03
2023-03-04T05:59:08.687Z,1011.04
2023-03-04T06:00:08.662Z,1011.05
2023-03-04T06:01:08.701Z,1011.04
2023-03-04T06:02:08.644Z,1011.05
2023-03-04T06:03:08.642Z,1011.07
2023-03-04T06:04:08.719Z,1011.06
2023-03-04T06:05:08.652Z,1011.07
2023-03-04T06:06:08.630Z,1011.05
2023-03-04T06:07:08.591Z,1011.03
2023-03-04T06:08:08.598Z,1011.02
2023-03-04T06:09:08.574Z,1011.01
2023-03-04T06:10:08.559Z,1010.98
2023-03-04T06:11:08.574Z,1010.95
2023-03-04T06:12:08.543Z,1010.95
2023-03-04T06:13:08.532Z,1010.94
2023-03-04T06:14:08.546Z,1010.93
2023-03-04T06:15:08.525Z,1010.93
2023-03-04T06:16:08.577Z,1010.92
2023-03-04T06:17:08.496Z,1010.93
2023-03-04T06:18:08.512Z,1010.95
2023-03-04T06:19:08.504Z,1010.96
2023-03-04T06:20:08.459Z,1010.95
2023-03-04T06:21:08.486Z,1010.95
2023-03-04T06:22:08.437Z,1010.93
2023-03-04T06:23:08.433Z,1010.94
2023-03-04T06:24:08.423Z,1010.96
2023-03-04T06:25:08.408Z,1010.97
2023-03-04T06:26:08.415Z,1010.98
2023-03-04T06:27:08.421Z,1010.99
2023-03-04T06:28:08.380Z,1010.99
2023-03-04T06:29:08.367Z,1011.00
2023-03-04T06:30:08.381Z,1011.02
2023-03-04T06:31:08.388Z,1011.02
2023-03-04T06:32:08.379Z,1011.02
2023-03-04T06:33:08.335Z,1011.02
2023-03-04T06:34:08.348Z,1011.02
2023-03-04T06:35:08.305Z,1011.02
2023-03-04T06:36:08.327Z,1011.02
2023-03-04T06:37:08.292Z,1011.00
2023-03-04T06:38:08.282Z,1011.01
2023-03-04T06:39:08.281Z,1011.02
2023-03-04T06:40:08.261Z,1011.01
2023-03-04T06:41:08.269Z,1011.02
2023-03-04T06:42:08.243Z,1011.02
2023-03-04T06:43:08.225Z,1011.03
2023-03-04T06:44:08.222Z,1011.05
2023-03-04T06:45:08.242Z,1011.08
2023-03-04T06:46:08.225Z,1011.07
2023-03-04T06:47:08.187Z,1011.08
2023-03-04T06:48:08.176Z,1011.06
2023-03-04T06:49:08.168Z,1011.06
2023-03-04T06:50:08.163Z,1011.09
2023-03-04T06:51:08.172Z,1011.10
2023-03-04T06:52:08.141Z,1011.11
2023-03-04T06:53:08.133Z,1011.13
2023-03-04T06:54:08.117Z,1011.14
2023-03-04T06:55:08.102Z,1011.14
2023-03-04T06:56:08.187Z,1011.17
2023-03-04T06:57:08.083Z,1011.18
2023-03-04T06:58:08.081Z,1011.19
2023-03-04T06:59:08.064Z,1011.20
2023-03-04T07:00:08.073Z,1011.21
2023-03-04T07:01:08.109Z,1011.22
2023-03-04T07:02:08.045Z,1011.21
2023-03-04T07:03:08.039Z,1011.22
2023-03-04T07:04:08.068Z,1011.22
2023-03-04T07:05:08.033Z,1011.22
2023-03-04T07:06:08.023Z,1011.22
2023-03-04T07:07:07.992Z,1011.22
2023-03-04T07:08:07.980Z,1011.20
2023-03-04T07:09:07.977Z,1011.20
2023-03-04T07:10:14.438Z,1011.21
2023-03-04T07:11:07.975Z,1011.20
2023-03-04T07:12:07.939Z,1011.20
2023-03-04T07:13:07.933Z,1011.19
2023-03-04T07:14:07.945Z,1011.20
2023-03-04T07:15:07.910Z,1011.20
2023-03-04T07:16:07.977Z,1011.21
2023-03-04T07:17:07.920Z,1011.22
2023-03-04T07:18:07.899Z,1011.21
2023-03-04T07:19:07.862Z,1011.21
2023-03-04T07:20:07.875Z,1011.20
2023-03-04T07:21:07.850Z,1011.18
2023-03-04T07:22:07.855Z,1011.18
2023-03-04T07:23:07.843Z,1011.18
2023-03-04T07:24:07.815Z,1011.19
2023-03-04T07:25:07.800Z,1011.19
2023-03-04T07:26:07.798Z,1011.20
2023-03-04T07:27:07.806Z,1011.21
2023-03-04T07:28:07.781Z,1011.22
2023-03-04T07:29:07.775Z,1011.23
2023-03-04T07:30:07.755Z,1011.23
2023-03-04T07:31:07.741Z,1011.24
2023-03-04T07:32:07.894Z,1011.23
2023-03-04T07:33:07.720Z,1011.24
2023-03-04T07:34:07.722Z,1011.24
2023-03-04T07:35:07.710Z,1011.24
2023-03-04T07:36:07.708Z,1011.23
2023-03-04T07:37:07.705Z,1011.23
2023-03-04T07:38:07.684Z,1011.21
2023-03-04T07:39:07.692Z,1011.21
2023-03-04T07:40:07.657Z,1011.22
2023-03-04T07:41:07.643Z,1011.21
2023-03-04T07:42:07.673Z,1011.22
2023-03-04T07:43:07.644Z,1011.25
2023-03-04T07:44:07.619Z,1011.22
2023-03-04T07:45:07.599Z,1011.24
2023-03-04T07:46:07.649Z,1011.26
2023-03-04T07:47:07.613Z,1011.24
2023-03-04T07:48:07.594Z,1011.23
2023-03-04T07:49:07.576Z,1011.24
2023-03-04T07:50:07.572Z,1011.25
2023-03-04T07:51:07.544Z,1011.25
2023-03-04T07:52:07.562Z,1011.27
2023-03-04T07:53:07.519Z,1011.26
2023-03-04T07:54:07.537Z,1011.26
2023-03-04T07:55:07.503Z,1011.25
2023-03-04T07:56:07.497Z,1011.26
2023-03-04T07:57:07.504Z,1011.27
2023-03-04T07:58:07.494Z,1011.27
2023-03-04T07:59:07.465Z,1011.27
2023-03-04T08:00:07.458Z,1011.29
2023-03-04T08:01:07.498Z,1011.29
2023-03-04T08:02:07.479Z,1011.28
2023-03-04T08:03:07.426Z,1011.30
2023-03-04T08:04:07.534Z,1011.30
2023-03-04T08:05:07.407Z,1011.31
2023-03-04T08:06:07.410Z,1011.32
2023-03-04T08:07:07.409Z,1011.32
2023-03-04T08:08:07.381Z,1011.30
2023-03-04T08:09:07.370Z,1011.30
2023-03-04T08:10:07.360Z,1011.29
2023-03-04T08:11:07.344Z,1011.29
2023-03-04T08:12:07.375Z,1011.30
2023-03-04T08:13:07.335Z,1011.31
2023-03-04T08:14:07.324Z,1011.29
2023-03-04T08:15:07.306Z,1011.29
2023-03-04T08:16:07.366Z,1011.28
2023-03-04T08:17:07.284Z,1011.30
2023-03-04T08:18:07.306Z,1011.29
2023-03-04T08:19:07.276Z,1011.29
2023-03-04T08:20:07.303Z,1011.28
2023-03-04T08:21:07.241Z,1011.27
2023-03-04T08:22:07.240Z,1011.28
2023-03-04T08:23:07.254Z,1011.28
2023-03-04T08:24:07.290Z,1011.27
2023-03-04T08:25:07.207Z,1011.28
2023-03-04T08:26:07.199Z,1011.27
2023-03-04T08:27:07.182Z,1011.26
2023-03-04T08:28:07.200Z,1011.26
2023-03-04T08:29:07.181Z,1011.26
2023-03-04T08:30:07.162Z,1011.27
2023-03-04T08:31:07.176Z,1011.30
2023-03-04T08:32:07.286Z,1011.29
2023-03-04T08:33:07.171Z,1011.29
2023-03-04T08:34:07.114Z,1011.31
2023-03-04T08:35:07.986Z,1011.31
2023-03-04T08:36:07.119Z,1011.32
2023-03-04T08:37:07.100Z,1011.30
2023-03-04T08:38:07.132Z,1011.30
2023-03-04T08:39:07.068Z,1011.30
2023-03-04T08:40:07.058Z,1011.30
2023-03-04T08:41:07.056Z,1011.30
2023-03-04T08:42:07.158Z,1011.31
2023-03-04T08:43:07.072Z,1011.31
2023-03-04T08:44:07.026Z,1011.31
2023-03-04T08:45:07.006Z,1011.33
2023-03-04T08:46:07.036Z,1011.31
2023-03-04T08:47:07.003Z,1011.32
2023-03-04T08:48:07.111Z,1011.34
2023-03-04T08:49:06.989Z,1011.34
2023-03-04T08:50:06.993Z,1011.33
2023-03-04T08:51:06.985Z,1011.33
2023-03-04T08:52:06.977Z,1011.32
2023-03-04T08:53:06.960Z,1011.31
2023-03-04T08:54:07.004Z,1011.31
2023-03-04T08:55:06.913Z,1011.31
2023-03-04T08:56:06.935Z,1011.32
2023-03-04T08:57:06.909Z,1011.33
2023-03-04T08:58:06.915Z,1011.32
2023-03-04T08:59:06.870Z,1011.32
2023-03-04T09:00:06.862Z,1011.31
2023-03-04T09:01:06.917Z,1011.31
2023-03-04T09:02:07.040Z,1011.29
2023-03-04T09:03:06.889Z,1011.25
2023-03-04T09:04:06.839Z,1011.29
2023-03-04T09:05:06.818Z,1011.26
2023-03-04T09:06:06.844Z,1011.25
2023-03-04T09:07:06.783Z,1011.23
2023-03-04T09:08:06.798Z,1011.23
2023-03-04T09:09:06.787Z,1011.21
2023-03-04T09:10:06.762Z,1011.19
2023-03-04T09:11:06.751Z,1011.19
2023-03-04T09:12:06.755Z,1011.19
2023-03-04T09:13:06.729Z,1011.19
2023-03-04T09:14:06.745Z,1011.18
2023-03-04T09:15:11.612Z,1011.15
2023-03-04T09:16:06.829Z,1011.17
2023-03-04T09:17:06.713Z,1011.17
2023-03-04T09:18:06.718Z,1011.17
2023-03-04T09:19:06.745Z,1011.16
2023-03-04T09:20:06.661Z,1011.15
2023-03-04T09:21:06.692Z,1011.16
2023-03-04T09:22:06.708Z,1011.15
2023-03-04T09:23:06.643Z,1011.16
2023-03-04T09:24:06.655Z,1011.17
2023-03-04T09:25:10.348Z,1011.15
2023-03-04T09:26:06.614Z,1011.16
2023-03-04T09:27:06.593Z,1011.14
2023-03-04T09:28:06.597Z,1011.16
2023-03-04T09:29:06.626Z,1011.12
2023-03-04T09:30:06.565Z,1011.12
2023-03-04T09:31:06.623Z,1011.14
2023-03-04T09:32:06.724Z,1011.15
2023-03-04T09:33:06.534Z,1011.15
2023-03-04T09:34:06.554Z,1011.14
2023-03-04T09:35:06.532Z,1011.14
2023-03-04T09:36:06.511Z,1011.15
2023-03-04T09:37:06.607Z,1011.16
2023-03-04T09:38:06.491Z,1011.15
2023-03-04T09:39:06.503Z,1011.15
2023-03-04T09:40:06.460Z,1011.17
2023-03-04T09:41:06.447Z,1011.18
2023-03-04T09:42:06.442Z,1011.18
2023-03-04T09:43:06.430Z,1011.17
2023-03-04T09:44:06.469Z,1011.18
2023-03-04T09:45:06.403Z,1011.16
2023-03-04T09:46:06.403Z,1011.16
2023-03-04T09:47:06.396Z,1011.16
2023-03-04T09:48:06.385Z,1011.14
2023-03-04T09:49:07.507Z,1011.14
2023-03-04T09:50:06.371Z,1011.12
2023-03-04T09:51:06.404Z,1011.14
2023-03-04T09:52:06.341Z,1011.11
2023-03-04T09:53:06.331Z,1011.12
2023-03-04T09:54:06.358Z,1011.10
2023-03-04T09:55:06.327Z,1011.11
2023-03-04T09:56:06.334Z,1011.11
2023-03-04T09:57:06.306Z,1011.07
2023-03-04T09:58:06.286Z,1011.10
2023-03-04T09:59:06.351Z,1011.06
2023-03-04T10:00:06.311Z,1011.08
2023-03-04T10:01:06.243Z,1011.07
2023-03-04T10:02:06.250Z,1011.08
2023-03-04T10:03:06.227Z,1011.07
2023-03-04T10:04:06.251Z,1011.08
2023-03-04T10:05:06.237Z,1011.07
2023-03-04T10:06:06.276Z,1011.09
2023-03-04T10:07:06.436Z,1011.05
2023-03-04T10:08:06.177Z,1011.04
2023-03-04T10:09:06.227Z,1011.05
2023-03-04T10:10:06.222Z,1011.05
2023-03-04T10:11:06.139Z,1011.03
2023-03-04T10:12:06.135Z,1011.02
2023-03-04T10:13:06.123Z,1010.99
2023-03-04T10:14:06.150Z,1010.99
2023-03-04T10:15:06.136Z,1011.02
2023-03-04T10:16:06.106Z,1011.01
2023-03-04T10:17:06.084Z,1011.01
2023-03-04T10:18:06.071Z,1010.99
2023-03-04T10:19:06.053Z,1010.98
2023-03-04T10:20:06.079Z,1010.96
2023-03-04T10:21:06.049Z,1010.98
2023-03-04T10:22:06.033Z,1010.98
2023-03-04T10:23:06.018Z,1010.98
2023-03-04T10:24:06.009Z,1010.98
2023-03-04T10:25:06.053Z,1010.99
2023-03-04T10:26:05.991Z,1010.99
2023-03-04T10:27:05.971Z,1010.98
2023-03-04T10:28:05.965Z,1010.99
2023-03-04T10:29:05.959Z,1010.97
2023-03-04T10:30:05.966Z,1010.98
2023-03-04T10:31:05.925Z,1010.98
2023-03-04T10:32:05.967Z,1011.01
2023-03-04T10:33:05.930Z,1011.00
2023-03-04T10:34:05.912Z,1010.99
2023-03-04T10:35:05.901Z,1011.00
2023-03-04T10:36:05.936Z,1010.97
2023-03-04T10:37:05.861Z,1010.97
2023-03-04T10:38:05.871Z,1010.95
2023-03-04T10:39:05.839Z,1010.94
2023-03-04T10:40:05.861Z,1010.93
2023-03-04T10:41:05.827Z,1010.92
2023-03-04T10:42:05.896Z,1010.93
2023-03-04T10:43:05.796Z,1010.93
2023-03-04T10:44:05.779Z,1010.94
2023-03-04T10:45:05.827Z,1010.91
2023-03-04T10:46:05.820Z,1010.92
2023-03-04T10:47:05.760Z,1010.93
2023-03-04T10:48:08.443Z,1010.90
2023-03-04T10:49:05.730Z,1010.90
2023-03-04T10:50:05.768Z,1010.90
2023-03-04T10:51:05.709Z,1010.89
2023-03-04T10:52:05.698Z,1010.91
2023-03-04T10:53:05.709Z,1010.89
2023-03-04T10:54:05.679Z,1010.87
2023-03-04T10:55:05.711Z,1010.87
2023-03-04T10:56:05.674Z,1010.90
2023-03-04T10:57:05.664Z,1010.91
2023-03-04T10:58:05.632Z,1010.92
2023-03-04T10:59:05.627Z,1010.93
2023-03-04T11:00:05.638Z,1010.86
2023-03-04T11:01:05.718Z,1010.84
2023-03-04T11:02:05.602Z,1010.85
2023-03-04T11:03:05.585Z,1010.83
2023-03-04T11:04:05.632Z,1010.82
2023-03-04T11:05:05.592Z,1010.78
2023-03-04T11:06:05.589Z,1010.79
2023-03-04T11:07:05.557Z,1010.79
2023-03-04T11:08:05.545Z,1010.78
2023-03-04T11:09:05.533Z,1010.78
2023-03-04T11:10:05.593Z,1010.76
2023-03-04T11:11:05.499Z,1010.75
2023-03-04T11:12:05.492Z,1010.74
2023-03-04T11:13:05.481Z,1010.71
2023-03-04T11:14:05.484Z,1010.72
2023-03-04T11:15:05.461Z,1010.71
2023-03-04T11:16:05.470Z,1010.69
2023-03-04T11:17:05.448Z,1010.69
2023-03-04T11:18:05.420Z,1010.68
2023-03-04T11:19:05.421Z,1010.67
2023-03-04T11:20:05.478Z,1010.68
2023-03-04T11:21:05.418Z,1010.68
2023-03-04T11:22:05.378Z,1010.69
2023-03-04T11:23:05.378Z,1010.69
2023-03-04T11:24:06.205Z,1010.68
2023-03-04T11:25:05.448Z,1010.66
2023-03-04T11:26:05.381Z,1010.67
2023-03-04T11:27:05.339Z,1010.66
2023-03-04T11:28:06.533Z,1010.65
2023-03-04T11:29:05.312Z,1010.65
2023-03-04T11:30:05.296Z,1010.64
2023-03-04T11:31:05.321Z,1010.64
2023-03-04T11:32:05.369Z,1010.62
2023-03-04T11:33:05.289Z,1010.60
2023-03-04T11:34:05.255Z,1010.58
2023-03-04T11:35:05.248Z,1010.56
2023-03-04T11:36:05.262Z,1010.59
2023-03-04T11:37:05.248Z,1010.56
2023-03-04T11:38:11.754Z,1010.56
2023-03-04T11:39:11.739Z,1010.58
2023-03-04T11:40:05.239Z,1010.57
2023-03-04T11:41:05.246Z,1010.57
2023-03-04T11:42:05.214Z,1010.56
2023-03-04T11:43:05.196Z,1010.57
2023-03-04T11:44:11.721Z,1010.53
2023-03-04T11:45:05.256Z,1010.57
2023-03-04T11:46:05.289Z,1010.58
2023-03-04T11:47:05.159Z,1010.58
2023-03-04T11:48:05.141Z,1010.59
2023-03-04T11:49:05.271Z,1010.62
2023-03-04T11:50:05.245Z,1010.63
2023-03-04T11:51:05.139Z,1010.63
2023-03-04T11:52:05.103Z,1010.65
2023-03-04T11:53:05.127Z,1010.68
2023-03-04T11:54:05.083Z,1010.65
2023-03-04T11:55:05.071Z,1010.64
2023-03-04T11:56:05.096Z,1010.64
2023-03-04T11:57:05.072Z,1010.60
2023-03-04T11:58:05.039Z,1010.63
2023-03-04T11:59:05.028Z,1010.62
2023-03-04T12:00:05.077Z,1010.60
2023-03-04T12:01:05.114Z,1010.56
2023-03-04T12:02:04.994Z,1010.53
2023-03-04T12:03:04.988Z,1010.48
2023-03-04T12:04:05.041Z,1010.49
2023-03-04T12:05:04.978Z,1010.51